Time;durP1;ratioP1;P1;durP2;ratioP2;P2;SDS_P1;SDS_P2;PMS_P1;PMS_P2;Temp;Humidity;BMP_temperature;BMP_pressure;BME280_temperature;BME280_humidity;BME280_pressure;Samples;Min_cycle;Max_cycle;Signal;HPM_P1;HPM_P2
2021/05/31 00:58:08;;;;;;;7.95;2.25;;;;;;;12.67;49.01;100387.84;2143728;41;20317;-81
2021/05/31 00:59:44;;;;;;;9.82;2.70;;;;;;;12.66;48.78;100386.19;2137127;41;20059;-82
2021/05/31 01:01:33;;;;;;;6.03;2.45;;;;;;;12.66;48.75;100387.00;2130952;41;20040;-81
2021/05/31 01:05:14;;;;;;;6.97;3.55;;;;;;;12.50;49.37;100389.50;2156123;41;20039;-82
2021/05/31 01:06:56;;;;;;;8.30;3.10;;;;;;;12.50;49.54;100384.97;2167820;40;20027;-80
2021/05/31 01:08:31;;;;;;;5.00;2.30;;;;;;;12.51;49.45;100378.63;2185855;40;20036;-81
2021/05/31 03:21:45;;;;;;;5.00;2.20;;;;;;;11.55;51.47;100355.50;2164562;41;20052;-77
2021/05/31 03:23:24;;;;;;;5.35;2.40;;;;;;;11.52;51.51;100356.66;2139173;41;20084;-79
2021/05/31 03:24:55;;;;;;;5.82;2.30;;;;;;;11.53;51.60;100355.66;2146358;41;20584;-80
2021/05/31 03:26:27;;;;;;;5.38;2.22;;;;;;;11.53;51.63;100363.69;2150179;41;20127;-81
2021/05/31 03:28:00;;;;;;;5.22;2.30;;;;;;;11.50;51.51;100352.44;2152320;41;20046;-82
2021/05/31 03:31:25;;;;;;;6.22;3.03;;;;;;;11.51;51.64;100348.78;2149912;41;20038;-81
2021/05/31 03:33:12;;;;;;;6.10;2.65;;;;;;;11.48;51.48;100354.41;2155310;41;20669;-80
2021/05/31 03:34:43;;;;;;;4.03;2.05;;;;;;;11.49;51.30;100348.91;2136500;41;20804;-79
2021/05/31 03:36:14;;;;;;;6.40;3.05;;;;;;;11.49;51.39;100353.41;2150324;41;20022;-79
2021/05/31 03:40:30;;;;;;;6.93;2.30;;;;;;;11.54;51.20;100356.50;2144130;41;20055;-81
2021/05/31 03:42:02;;;;;;;8.32;2.17;;;;;;;11.53;50.96;100352.13;2153028;41;20046;-80
2021/05/31 03:43:33;;;;;;;8.15;2.47;;;;;;;11.58;51.18;100355.25;2137718;41;20050;-80
2021/05/31 03:45:07;;;;;;;7.40;2.08;;;;;;;11.59;51.13;100362.28;2168745;41;20048;-80
2021/05/31 03:46:38;;;;;;;6.50;2.30;;;;;;;11.61;51.30;100360.31;2162829;41;20045;-79
2021/05/31 07:44:35;;;;;;;5.63;2.20;;;;;;;17.54;39.57;100350.84;2165311;41;20098;-86
2021/05/31 07:46:06;;;;;;;4.03;1.80;;;;;;;17.72;38.76;100355.88;2154586;41;20038;-80
2021/05/31 07:47:38;;;;;;;3.95;1.63;;;;;;;17.89;38.24;100350.34;2158395;41;20033;-85
2021/05/31 07:49:09;;;;;;;4.85;2.00;;;;;;;18.02;37.72;100347.00;2161015;41;20058;-82
2021/05/31 07:50:41;;;;;;;5.05;1.83;;;;;;;18.02;36.64;100347.84;2162129;41;20036;-83
2021/05/31 07:52:19;;;;;;;7.93;1.98;;;;;;;17.96;36.66;100354.00;2160933;41;20037;-84
2021/05/31 07:53:52;;;;;;;5.13;2.15;;;;;;;17.91;37.17;100351.81;2161971;41;20026;-82
2021/05/31 09:21:11;;;;;;;6.95;3.70;;;;;;;21.17;28.08;100297.84;2186417;23;20044;-88
2021/05/31 09:22:47;;;;;;;4.13;1.75;;;;;;;21.14;28.16;100297.41;2171983;40;20049;-87
2021/05/31 09:24:27;;;;;;;4.85;1.58;;;;;;;20.99;28.39;100306.59;2174343;41;20041;-89
2021/05/31 09:30:53;;;;;;;5.05;2.13;;;;;;;21.23;28.26;100288.00;2173142;41;20041;-90
2021/05/31 09:32:26;;;;;;;6.82;1.85;;;;;;;21.08;28.42;100288.22;2168141;41;20600;-88
2021/05/31 09:34:01;;;;;;;4.35;2.05;;;;;;;21.23;28.44;100289.88;2168115;41;20049;-90
2021/05/31 09:40:22;;;;;;;3.83;2.17;;;;;;;20.94;29.53;100284.66;2161527;41;20049;-87
2021/05/31 09:42:01;;;;;;;4.95;1.90;;;;;;;21.15;29.57;100286.31;2156155;41;20107;-88
2021/05/31 09:43:37;;;;;;;3.58;1.45;;;;;;;21.46;29.27;100279.41;2153495;41;20043;-88
2021/05/31 09:46:41;;;;;;;5.25;1.90;;;;;;;21.75;28.19;100271.00;2167444;41;20422;-87
2021/05/31 09:48:12;;;;;;;5.05;1.90;;;;;;;21.47;28.41;100282.97;2155854;41;20900;-85
2021/05/31 09:49:44;;;;;;;4.53;2.10;;;;;;;21.55;28.38;100290.06;2151931;41;20062;-88
2021/05/31 09:51:15;;;;;;;4.78;1.92;;;;;;;21.59;27.52;100272.28;2166869;41;20082;-89
2021/05/31 09:54:30;;;;;;;3.95;1.63;;;;;;;21.72;27.54;100282.34;2162101;41;20027;-88
2021/05/31 09:56:13;;;;;;;3.67;1.63;;;;;;;21.89;26.92;100271.81;2146069;41;20042;-88
2021/05/31 09:57:44;;;;;;;3.78;1.50;;;;;;;21.93;25.74;100278.50;2155938;41;20108;-88
2021/05/31 09:59:18;;;;;;;3.20;1.30;;;;;;;21.58;26.19;100273.34;2166629;41;20097;-86
2021/05/31 10:00:59;;;;;;;4.72;1.67;;;;;;;21.69;26.18;100274.59;2154096;41;20100;-88
2021/05/31 10:02:41;;;;;;;3.47;1.38;;;;;;;21.77;25.61;100264.31;2155984;41;20026;-84
2021/05/31 10:04:27;;;;;;;3.88;1.50;;;;;;;21.65;25.98;100260.59;2114047;41;20807;-88
2021/05/31 10:10:42;;;;;;;3.40;1.40;;;;;;;21.87;25.81;100260.31;2155212;41;20553;-88
2021/05/31 10:12:15;;;;;;;3.00;1.48;;;;;;;21.87;25.99;100260.31;2156485;41;20030;-87
2021/05/31 10:13:47;;;;;;;4.32;1.55;;;;;;;21.71;26.09;100258.91;2144095;41;20049;-88
2021/05/31 10:16:51;;;;;;;3.28;1.50;;;;;;;21.60;25.57;100273.97;2174129;24;20057;-89
2021/05/31 10:18:26;;;;;;;4.60;1.80;;;;;;;21.45;26.27;100271.44;2155666;41;20037;-90
2021/05/31 10:20:00;;;;;;;3.58;1.40;;;;;;;21.34;26.57;100264.78;2152055;41;20054;-91
2021/05/31 10:21:32;;;;;;;3.58;1.40;;;;;;;21.39;26.81;100264.16;2156362;41;20578;-89
2021/05/31 10:23:05;;;;;;;4.13;1.85;;;;;;;21.59;26.64;100262.28;2152488;41;20050;-90
2021/05/31 10:24:36;;;;;;;3.80;1.40;;;;;;;21.92;26.27;100255.88;2165338;41;20053;-91
2021/05/31 10:27:50;;;;;;;5.50;2.90;;;;;;;21.90;26.13;100260.72;2167343;41;20086;-88
2021/05/31 10:29:24;;;;;;;3.85;1.55;;;;;;;22.22;25.69;100252.63;2132887;41;20578;-90
2021/05/31 10:34:02;;;;;;;2.95;1.25;;;;;;;22.44;24.88;100258.59;2162728;41;20301;-89
2021/05/31 10:35:35;;;;;;;3.95;1.70;;;;;;;22.52;24.59;100249.34;2157247;41;20099;-89
2021/05/31 10:37:17;;;;;;;4.93;1.50;;;;;;;22.81;23.65;100252.53;2155138;41;20088;-87
2021/05/31 10:40:30;;;;;;;4.85;1.60;;;;;;;22.93;23.30;100246.38;2162268;41;20509;-90
2021/05/31 10:42:06;;;;;;;5.65;1.40;;;;;;;23.15;23.54;100233.16;2159833;41;20111;-90
2021/05/31 10:43:45;;;;;;;2.95;1.30;;;;;;;23.65;23.02;100243.19;2157324;41;20023;-89
2021/05/31 10:45:30;;;;;;;3.97;1.55;;;;;;;23.96;22.83;100241.41;2156612;41;20849;-87
2021/05/31 10:48:36;;;;;;;3.00;1.42;;;;;;;23.48;23.72;100248.41;2190939;23;20045;-88
2021/05/31 10:50:15;;;;;;;3.80;1.33;;;;;;;23.42;23.80;100236.53;2169560;41;20323;-89
2021/05/31 10:51:48;;;;;;;4.65;1.60;;;;;;;23.65;23.48;100245.91;2168761;41;20090;-87
2021/05/31 10:53:25;;;;;;;4.50;1.73;;;;;;;23.65;23.27;100245.91;2165592;41;20040;-86
2021/05/31 10:55:06;;;;;;;4.65;1.77;;;;;;;22.83;23.96;100247.69;2168667;41;20086;-85
2021/05/31 10:59:49;;;;;;;3.47;1.55;;;;;;;23.00;24.92;100233.50;2160028;41;20046;-90
2021/05/31 11:01:34;;;;;;;5.10;1.50;;;;;;;22.81;25.15;100236.16;2163856;41;20037;-86
2021/05/31 11:03:12;;;;;;;4.13;1.80;;;;;;;22.33;25.84;100244.81;2156941;41;20034;-86
2021/05/31 11:06:16;;;;;;;6.05;1.70;;;;;;;21.72;26.98;100245.06;2188650;23;21053;-88
2021/05/31 11:07:56;;;;;;;5.68;1.98;;;;;;;21.56;27.72;100261.84;2173535;41;20041;-86
2021/05/31 11:09:30;;;;;;;4.67;1.60;;;;;;;21.33;27.78;100244.94;2168476;41;20037;-86
2021/05/31 11:11:03;;;;;;;3.85;1.63;;;;;;;21.18;28.09;100244.28;2167231;41;20041;-88
2021/05/31 11:12:34;;;;;;;5.70;1.90;;;;;;;20.97;28.63;100251.59;2168696;41;20034;-87
2021/05/31 11:14:06;;;;;;;4.00;2.05;;;;;;;20.82;29.51;100256.41;2166084;41;20113;-87
2021/05/31 11:23:56;;;;;;;4.82;1.80;;;;;;;20.82;28.71;100243.69;2171997;41;20041;-86
2021/05/31 11:25:29;;;;;;;3.17;1.95;;;;;;;20.62;28.38;100240.06;2148270;41;20025;-88
2021/05/31 11:27:01;;;;;;;4.43;2.05;;;;;;;20.45;29.26;100242.31;2174215;41;20044;-89
2021/05/31 11:28:32;;;;;;;8.00;2.40;;;;;;;20.46;29.05;100235.84;2187118;24;20521;-88
2021/05/31 11:30:06;;;;;;;6.35;1.77;;;;;;;20.34;28.99;100247.31;2155091;41;20285;-87
2021/05/31 11:34:55;;;;;;;5.75;1.65;;;;;;;20.63;27.80;100239.84;2177377;40;20088;-87
2021/05/31 11:39:41;;;;;;;4.40;1.40;;;;;;;20.68;27.32;100233.81;2165039;41;20893;-87
2021/05/31 11:41:13;;;;;;;4.90;1.70;;;;;;;20.72;27.67;100233.19;2167085;40;20154;-91
2021/05/31 11:42:45;;;;;;;5.03;1.35;;;;;;;20.75;27.93;100226.53;2164118;41;20030;-89
2021/05/31 11:50:58;;;;;;;3.80;1.73;;;;;;;20.86;27.96;100225.09;2166568;41;20755;-90
2021/05/31 11:54:21;;;;;;;3.28;1.63;;;;;;;20.96;27.87;100220.06;2166588;41;20105;-89
2021/05/31 11:55:54;;;;;;;3.88;1.52;;;;;;;20.95;28.18;100202.09;2139213;41;20038;-89
2021/05/31 11:57:26;;;;;;;3.40;1.25;;;;;;;21.00;28.21;100217.78;2167921;41;20030;-89
2021/05/31 11:58:57;;;;;;;4.72;1.60;;;;;;;21.08;28.01;100214.84;2162130;41;20754;-89
2021/05/31 12:00:30;;;;;;;3.83;1.67;;;;;;;21.00;27.92;100221.31;2168397;41;20066;-91
2021/05/31 12:02:04;;;;;;;4.40;1.70;;;;;;;20.98;27.84;100223.41;2161564;41;20041;-90
2021/05/31 12:03:39;;;;;;;5.88;2.45;;;;;;;20.87;27.88;100218.59;2162013;41;20053;-88
2021/05/31 12:07:14;;;;;;;3.45;1.83;;;;;;;20.84;27.98;100214.41;2183287;24;20982;-91
2021/05/31 12:10:33;;;;;;;4.88;2.00;;;;;;;21.02;27.95;100205.63;2168142;41;20052;-88
2021/05/31 12:12:06;;;;;;;3.70;1.60;;;;;;;20.92;26.93;100210.66;2168183;41;20014;-87
2021/05/31 12:13:37;;;;;;;5.47;1.90;;;;;;;20.75;27.21;100209.41;2163841;41;20505;-90
2021/05/31 12:18:17;;;;;;;4.53;1.88;;;;;;;20.82;27.26;100202.09;2161509;41;20046;-89
2021/05/31 12:19:49;;;;;;;4.55;2.13;;;;;;;20.84;27.52;100213.59;2159068;41;20050;-89
2021/05/31 12:21:21;;;;;;;4.40;1.98;;;;;;;20.80;27.29;100212.31;2162239;41;20694;-87
2021/05/31 12:22:52;;;;;;;4.22;2.05;;;;;;;20.64;28.23;100200.78;2159721;41;20040;-89
2021/05/31 12:24:27;;;;;;;3.88;1.88;;;;;;;20.67;28.61;100200.38;2162331;41;20029;-88
2021/05/31 12:26:03;;;;;;;4.85;1.77;;;;;;;20.73;28.56;100194.16;2160822;41;20830;-87
2021/05/31 12:27:45;;;;;;;3.65;1.73;;;;;;;20.94;28.90;100194.97;2162308;41;20026;-88
2021/05/31 12:29:17;;;;;;;9.68;1.95;;;;;;;21.06;28.03;100191.66;2161351;41;20041;-87
2021/05/31 12:30:50;;;;;;;5.07;2.13;;;;;;;21.02;28.06;100181.19;2155221;41;20033;-88
2021/05/31 12:34:00;;;;;;;5.53;2.20;;;;;;;21.00;29.00;100183.25;2173385;41;20074;-89
2021/05/31 12:37:05;;;;;;;7.47;2.15;;;;;;;21.00;28.94;100194.13;2165103;41;20061;-87
2021/05/31 12:38:39;;;;;;;5.80;2.17;;;;;;;20.99;28.49;100195.19;2168254;41;20030;-89
2021/05/31 12:42:43;;;;;;;3.95;1.90;;;;;;;21.04;28.29;100181.81;2162429;41;20045;-89
2021/05/31 12:44:17;;;;;;;4.40;1.90;;;;;;;21.08;27.58;100182.22;2161250;41;20034;-90
2021/05/31 12:45:49;;;;;;;5.10;1.95;;;;;;;21.12;27.62;100182.63;2156128;41;20029;-92
2021/05/31 12:47:21;;;;;;;6.55;2.35;;;;;;;21.10;27.53;100188.28;2156519;41;20015;-90
2021/05/31 12:48:52;;;;;;;4.07;1.92;;;;;;;21.12;28.03;100175.31;2155242;41;20088;-89
2021/05/31 12:50:28;;;;;;;5.07;1.70;;;;;;;21.07;27.98;100190.56;2156564;41;20034;-91
2021/05/31 12:52:00;;;;;;;4.35;1.92;;;;;;;21.14;28.08;100172.41;2155077;41;20053;-89
2021/05/31 12:55:14;;;;;;;3.85;1.90;;;;;;;21.23;28.32;100171.13;2161661;41;20038;-86
2021/05/31 12:56:46;;;;;;;5.15;2.17;;;;;;;21.16;28.05;100165.69;2156001;41;20031;-90
2021/05/31 12:58:21;;;;;;;4.55;1.80;;;;;;;21.11;28.18;100172.81;2154939;41;20033;-91
2021/05/31 13:01:29;;;;;;;5.00;2.13;;;;;;;21.33;27.88;100157.06;2160275;41;20030;-91
2021/05/31 13:04:34;;;;;;;4.65;2.25;;;;;;;21.60;27.82;100148.84;2161580;41;20042;-88
2021/05/31 13:06:06;;;;;;;4.88;1.60;;;;;;;21.66;28.03;100145.28;2156492;41;20038;-87
2021/05/31 13:10:48;;;;;;;6.20;1.65;;;;;;;21.79;27.96;100147.13;2160773;41;20038;-88
2021/05/31 13:14:22;;;;;;;4.40;1.60;;;;;;;21.72;28.07;100149.88;383683;24;20302;-86
2021/05/31 13:15:54;;;;;;;4.68;1.90;;;;;;;21.70;27.74;100137.53;2164758;41;20041;-92
2021/05/31 13:17:30;;;;;;;4.05;1.70;;;;;;;21.58;27.93;100146.38;2160328;41;20041;-91
2021/05/31 13:19:01;;;;;;;5.03;1.65;;;;;;;21.42;27.81;100146.81;2156699;41;20026;-90
2021/05/31 13:20:33;;;;;;;9.77;3.63;;;;;;;21.39;28.18;100147.22;2162027;41;20041;-89
2021/05/31 13:22:06;;;;;;;5.38;3.15;;;;;;;21.37;28.13;100139.31;2155642;41;20152;-91
2021/05/31 13:23:39;;;;;;;3.85;2.10;;;;;;;21.40;28.10;100143.47;2144047;41;20027;-91
2021/05/31 13:25:17;;;;;;;4.32;1.95;;;;;;;21.53;27.80;100134.44;2153796;41;20038;-87
2021/05/31 13:26:48;;;;;;;3.13;1.38;;;;;;;21.55;27.32;100135.06;2155855;41;20857;-89
2021/05/31 13:29:59;;;;;;;6.38;2.45;;;;;;;21.56;27.56;100131.28;2161311;41;20056;-89
2021/05/31 13:33:11;;;;;;;3.50;1.77;;;;;;;21.83;27.26;100148.34;2189503;23;20052;-88
2021/05/31 13:36:16;;;;;;;5.85;1.92;;;;;;;21.89;27.28;100128.44;2167318;41;20046;-89
2021/05/31 13:37:48;;;;;;;4.90;1.90;;;;;;;21.84;27.53;100130.16;2162201;41;20038;-89
2021/05/31 13:42:35;;;;;;;5.28;1.98;;;;;;;21.69;27.08;100119.53;2165164;41;20049;-86
2021/05/31 13:44:12;;;;;;;4.18;1.98;;;;;;;21.66;27.49;100120.81;2159615;41;20041;-89
2021/05/31 13:45:45;;;;;;;5.53;1.80;;;;;;;21.75;27.64;100116.78;2160530;41;20045;-87
2021/05/31 13:47:16;;;;;;;7.57;1.50;;;;;;;21.84;27.76;100121.97;2161526;41;20034;-88
2021/05/31 13:48:49;;;;;;;3.10;1.60;;;;;;;21.90;27.16;100105.63;2160409;41;20034;-89
2021/05/31 13:50:21;;;;;;;3.10;1.50;;;;;;;21.96;26.77;100098.47;2161987;41;20034;-87
2021/05/31 13:51:53;;;;;;;3.33;1.60;;;;;;;22.07;26.65;100110.53;2160531;41;20103;-84
2021/05/31 13:53:26;;;;;;;5.60;1.75;;;;;;;22.17;26.50;100102.72;2161783;41;20065;-86
2021/05/31 13:54:56;;;;;;;3.80;1.63;;;;;;;22.22;26.00;100108.34;2160587;41;20042;-87
2021/05/31 13:56:28;;;;;;;4.65;1.90;;;;;;;22.19;25.70;100107.94;2161809;41;20038;-88
2021/05/31 13:57:59;;;;;;;3.83;1.50;;;;;;;22.19;25.90;100111.50;2160211;41;20034;-85
2021/05/31 13:59:30;;;;;;;4.57;2.30;;;;;;;22.03;25.68;100098.41;2161228;41;20041;-87
2021/05/31 14:01:01;;;;;;;6.82;1.60;;;;;;;21.84;26.11;100095.59;2160422;41;20045;-86
2021/05/31 14:02:32;;;;;;;5.13;1.48;;;;;;;21.94;25.92;100095.13;2161917;41;20034;-85
2021/05/31 14:04:05;;;;;;;3.53;1.80;;;;;;;22.02;25.83;100097.59;2160238;41;20072;-87
2021/05/31 14:05:39;;;;;;;10.45;2.33;;;;;;;22.10;25.92;100099.22;2162064;41;20038;-87
2021/05/31 14:08:43;;;;;;;3.72;1.67;;;;;;;22.07;25.62;100096.94;2167358;41;20524;-86
2021/05/31 14:10:14;;;;;;;6.38;1.70;;;;;;;22.11;25.40;100098.16;2155688;41;20042;-84
2021/05/31 14:11:53;;;;;;;4.35;2.05;;;;;;;22.19;25.36;100089.75;2155571;41;20026;-85
2021/05/31 14:13:25;;;;;;;3.58;1.95;;;;;;;22.37;25.41;100090.84;2151142;41;20054;-85
2021/05/31 14:14:57;;;;;;;10.05;2.10;;;;;;;22.78;25.18;100089.47;2149757;41;20034;-84
2021/05/31 14:18:00;;;;;;;7.78;2.17;;;;;;;23.67;24.56;100080.91;2167281;41;20041;-87
2021/05/31 14:19:33;;;;;;;8.38;2.50;;;;;;;24.08;23.99;100075.75;2161675;41;20034;-88
2021/05/31 14:21:05;;;;;;;4.15;2.03;;;;;;;24.44;23.54;100082.09;2149837;41;20135;-85
2021/05/31 14:22:36;;;;;;;4.50;1.90;;;;;;;24.70;23.23;100082.75;2143941;41;20108;-88
2021/05/31 14:24:08;;;;;;;5.50;1.73;;;;;;;24.65;22.83;100085.34;2147859;41;20033;-85
2021/05/31 14:25:39;;;;;;;3.28;1.35;;;;;;;24.36;22.98;100078.88;2131627;41;20553;-85
2021/05/31 14:28:43;;;;;;;4.45;1.83;;;;;;;24.65;22.88;100085.34;2167048;41;20037;-89
2021/05/31 14:30:17;;;;;;;4.22;1.85;;;;;;;24.60;22.27;100085.19;2155962;41;20095;-85
2021/05/31 14:31:48;;;;;;;5.45;1.73;;;;;;;24.41;22.67;100079.03;2149674;41;20111;-89
2021/05/31 14:34:52;;;;;;;4.88;2.05;;;;;;;24.42;22.61;100081.50;2165542;41;20038;-87
2021/05/31 14:37:55;;;;;;;3.53;1.60;;;;;;;24.24;23.15;100076.13;2166833;41;20069;-85
2021/05/31 14:39:27;;;;;;;4.38;1.60;;;;;;;24.25;23.54;100075.91;2161051;41;20045;-86
2021/05/31 14:40:58;;;;;;;3.33;1.40;;;;;;;24.20;23.56;100073.03;2156125;41;20053;-81
2021/05/31 14:42:30;;;;;;;5.55;1.48;;;;;;;24.12;23.66;100078.84;2158174;41;20029;-83
2021/05/31 14:44:02;;;;;;;3.55;1.80;;;;;;;24.11;23.42;100067.09;2158780;41;20038;-83
2021/05/31 14:45:34;;;;;;;5.85;2.13;;;;;;;24.07;23.39;100075.97;2161177;41;20026;-84
2021/05/31 14:47:06;;;;;;;6.43;1.60;;;;;;;24.05;23.35;100068.03;2154264;41;20101;-85
2021/05/31 14:48:37;;;;;;;4.47;1.60;;;;;;;24.08;23.57;100070.31;2161460;41;20038;-84
2021/05/31 14:50:12;;;;;;;4.28;1.63;;;;;;;24.21;22.91;100063.78;2160036;41;20112;-89
2021/05/31 14:51:44;;;;;;;4.30;2.15;;;;;;;24.04;22.58;100071.81;2157872;41;20045;-82
2021/05/31 14:53:14;;;;;;;8.40;4.93;;;;;;;23.75;23.04;100071.56;2160873;41;20767;-85
2021/05/31 14:54:47;;;;;;;7.15;2.97;;;;;;;23.58;23.58;100067.84;2160182;41;20078;-85
2021/05/31 14:56:19;;;;;;;9.07;5.57;;;;;;;23.44;23.54;100065.25;2135389;41;20126;-85
2021/05/31 14:57:51;;;;;;;7.55;4.82;;;;;;;23.32;23.71;100067.94;2153062;41;20030;-86
2021/05/31 15:02:26;;;;;;;6.53;3.10;;;;;;;23.31;24.45;100060.00;2162690;41;20060;-81
2021/05/31 15:03:57;;;;;;;5.90;3.15;;;;;;;23.21;24.42;100055.91;2161181;41;20040;-81
2021/05/31 15:05:30;;;;;;;5.03;3.25;;;;;;;23.19;24.46;100059.94;2164413;41;20036;-80
2021/05/31 15:07:01;;;;;;;6.15;3.80;;;;;;;23.08;24.79;100061.47;2165205;41;20125;-80
2021/05/31 15:08:33;;;;;;;6.32;2.92;;;;;;;22.99;24.82;100065.56;2166011;41;20040;-81
2021/05/31 15:10:05;;;;;;;7.13;3.33;;;;;;;23.02;25.13;100062.41;2164457;41;20057;-81
2021/05/31 15:11:37;;;;;;;6.20;2.25;;;;;;;22.96;25.04;100055.97;2168745;41;20057;-82
2021/05/31 15:13:08;;;;;;;7.35;2.35;;;;;;;22.93;25.26;100059.13;2143938;41;20048;-82
2021/05/31 15:14:40;;;;;;;3.40;1.80;;;;;;;23.01;25.14;100055.28;2155119;41;20048;-81
2021/05/31 15:16:11;;;;;;;4.43;2.17;;;;;;;23.10;25.14;100048.47;2157693;41;20073;-82
2021/05/31 15:17:42;;;;;;;6.03;2.38;;;;;;;23.18;24.90;100056.34;2161998;41;20056;-81
2021/05/31 15:19:14;;;;;;;7.35;4.65;;;;;;;23.07;24.81;100038.00;2161212;41;20041;-81
2021/05/31 15:20:47;;;;;;;5.93;2.95;;;;;;;23.04;25.11;100052.09;2168726;41;20080;-82
2021/05/31 15:22:18;;;;;;;6.75;3.25;;;;;;;22.87;25.24;100060.84;2141547;41;20051;-81
2021/05/31 15:23:49;;;;;;;6.88;3.78;;;;;;;22.73;25.92;100053.91;2161634;41;20033;-82
2021/05/31 15:25:20;;;;;;;5.28;2.38;;;;;;;22.66;25.67;100044.97;2160742;41;20052;-81
2021/05/31 15:26:51;;;;;;;4.07;2.20;;;;;;;22.74;25.04;100045.50;2167484;41;20033;-82
2021/05/31 15:28:23;;;;;;;5.10;2.30;;;;;;;22.62;25.49;100051.91;2167081;41;20381;-81
2021/05/31 15:29:55;;;;;;;4.53;2.58;;;;;;;22.59;25.74;100047.75;2164643;41;20411;-80
2021/05/31 15:31:26;;;;;;;4.43;2.10;;;;;;;22.61;25.32;100051.09;2168431;41;20057;-83
2021/05/31 15:32:57;;;;;;;4.65;2.40;;;;;;;22.54;25.23;100048.41;2165881;41;20042;-80
2021/05/31 15:34:29;;;;;;;11.93;6.38;;;;;;;22.50;25.21;100049.91;2164118;41;20335;-83
2021/05/31 15:36:02;;;;;;;7.93;3.63;;;;;;;22.51;25.03;100045.31;2164444;41;20114;-81
2021/05/31 15:37:32;;;;;;;5.88;2.65;;;;;;;22.56;24.84;100048.19;2166855;41;20688;-80
2021/05/31 15:39:04;;;;;;;4.10;1.85;;;;;;;22.71;25.03;100050.56;2167259;41;20058;-81
2021/05/31 15:40:36;;;;;;;3.80;1.80;;;;;;;22.80;25.15;100043.75;2161382;41;20060;-84
2021/05/31 15:42:07;;;;;;;5.47;2.05;;;;;;;22.82;25.00;100052.53;2162779;41;20108;-83
2021/05/31 15:43:38;;;;;;;4.72;1.92;;;;;;;22.61;25.19;100044.78;2163645;41;20049;-82
2021/05/31 15:45:12;;;;;;;4.93;2.28;;;;;;;22.52;25.31;100057.88;2162691;41;20038;-82
2021/05/31 15:46:43;;;;;;;4.72;2.63;;;;;;;22.47;25.34;100046.81;2133463;41;20116;-83
2021/05/31 15:48:14;;;;;;;7.60;2.67;;;;;;;22.42;25.73;100042.03;2150240;41;20041;-83
2021/05/31 15:49:46;;;;;;;5.70;1.95;;;;;;;22.37;25.93;100029.06;2161951;41;20704;-82
2021/05/31 15:51:19;;;;;;;6.40;2.17;;;;;;;22.33;26.28;100043.34;2162893;41;20045;-80
2021/05/31 15:52:54;;;;;;;5.13;1.77;;;;;;;22.38;26.29;100038.88;2154769;41;20045;-81
2021/05/31 15:54:25;;;;;;;3.17;1.77;;;;;;;22.45;26.03;100033.41;2164423;41;20049;-81
2021/05/31 15:55:56;;;;;;;4.85;2.30;;;;;;;22.48;26.02;100034.84;2169806;41;20064;-81
2021/05/31 15:57:27;;;;;;;5.60;1.70;;;;;;;22.38;26.11;100029.91;2171843;41;20048;-79
2021/05/31 15:58:59;;;;;;;5.72;1.75;;;;;;;22.21;26.21;100033.16;2170240;41;20379;-82
2021/05/31 16:00:30;;;;;;;4.82;1.83;;;;;;;22.19;26.18;100034.44;2168753;41;20049;-82
2021/05/31 16:02:02;;;;;;;3.78;1.92;;;;;;;22.13;25.99;100037.00;2167283;41;20052;-80
2021/05/31 16:03:34;;;;;;;4.00;1.90;;;;;;;22.07;25.92;100037.06;2169111;41;20068;-78
2021/05/31 16:05:07;;;;;;;3.88;1.88;;;;;;;22.07;26.09;100029.72;2121960;41;20093;-82
2021/05/31 16:06:40;;;;;;;4.63;1.50;;;;;;;22.19;26.35;100032.56;2163421;41;20040;-84
2021/05/31 16:08:11;;;;;;;3.80;1.77;;;;;;;22.27;26.58;100034.16;2166888;41;20049;-82
2021/05/31 16:09:42;;;;;;;3.80;1.83;;;;;;;22.37;26.55;100030.94;2166485;41;20052;-83
2021/05/31 16:11:14;;;;;;;4.20;2.00;;;;;;;22.37;26.73;100029.06;2174015;41;20393;-81
2021/05/31 16:12:52;;;;;;;4.32;2.08;;;;;;;22.28;26.83;100020.34;2170872;41;20045;-82
2021/05/31 16:14:23;;;;;;;5.15;1.95;;;;;;;22.21;27.17;100019.53;2168380;41;20053;-80
2021/05/31 16:15:55;;;;;;;5.32;2.30;;;;;;;22.26;27.14;100025.19;2168965;41;20041;-80
2021/05/31 16:17:26;;;;;;;3.72;1.90;;;;;;;22.24;27.22;100026.47;2169402;41;20053;-81
2021/05/31 16:18:57;;;;;;;3.40;1.80;;;;;;;22.35;27.09;100025.72;2172693;41;20057;-80
2021/05/31 16:20:28;;;;;;;4.10;1.83;;;;;;;22.45;26.92;100025.25;2169429;41;20029;-82
2021/05/31 16:22:02;;;;;;;5.57;1.80;;;;;;;22.42;26.98;100020.25;2172887;41;20122;-81
2021/05/31 16:23:35;;;;;;;3.58;1.70;;;;;;;22.43;26.84;100024.63;2167527;41;20060;-83
2021/05/31 16:25:14;;;;;;;7.13;1.73;;;;;;;22.35;26.66;100023.00;2167505;41;20572;-85
2021/05/31 16:26:46;;;;;;;11.38;8.35;;;;;;;22.26;26.75;100021.59;2169259;41;20068;-83
2021/05/31 16:28:18;;;;;;;6.15;3.63;;;;;;;22.17;26.71;100021.06;2175136;41;20659;-83
2021/05/31 16:29:49;;;;;;;7.15;2.60;;;;;;;22.09;26.83;100015.91;2175501;41;20057;-85
2021/05/31 16:31:21;;;;;;;5.22;1.92;;;;;;;22.07;26.90;100018.00;2162115;41;20057;-83
2021/05/31 16:32:52;;;;;;;4.22;1.92;;;;;;;22.10;26.97;100020.28;2166899;41;20579;-86
2021/05/31 16:34:23;;;;;;;3.42;1.85;;;;;;;22.14;26.59;100021.50;2169467;41;20045;-83
2021/05/31 16:35:56;;;;;;;3.58;1.65;;;;;;;22.17;26.48;100021.06;2170507;41;20037;-84
2021/05/31 16:37:29;;;;;;;3.97;1.92;;;;;;;22.15;26.81;100022.34;2158334;41;20369;-86
2021/05/31 16:39:01;;;;;;;4.55;2.35;;;;;;;22.11;26.87;100027.38;2175364;41;20048;-82
2021/05/31 16:40:33;;;;;;;5.03;2.25;;;;;;;22.05;26.90;100025.56;2175250;41;20044;-83
2021/05/31 16:42:04;;;;;;;3.22;1.88;;;;;;;22.10;26.68;100023.00;2165455;41;20378;-83
2021/05/31 16:43:35;;;;;;;3.70;1.90;;;;;;;22.13;26.53;100011.66;2175103;41;20476;-85
2021/05/31 16:45:07;;;;;;;3.80;2.10;;;;;;;22.19;26.61;100016.25;2177499;41;20032;-83
2021/05/31 16:46:39;;;;;;;4.63;1.98;;;;;;;22.11;27.04;100013.75;2175234;41;20052;-82
2021/05/31 16:48:10;;;;;;;4.22;1.80;;;;;;;22.07;27.17;100018.00;2176318;41;20043;-84
2021/05/31 16:50:01;;;;;;;3.60;1.80;;;;;;;21.90;27.76;100017.69;2157541;41;20052;-86
2021/05/31 16:51:32;;;;;;;4.95;2.25;;;;;;;21.85;27.89;100020.25;2170352;41;20037;-84
2021/05/31 16:53:05;;;;;;;3.50;1.88;;;;;;;21.83;28.17;100016.94;2169942;41;20690;-81
2021/05/31 16:54:37;;;;;;;3.58;1.70;;;;;;;21.89;27.91;100011.44;2175270;41;20117;-83
2021/05/31 16:56:08;;;;;;;4.20;2.10;;;;;;;22.02;27.52;100010.50;2173103;41;20056;-82
2021/05/31 16:57:40;;;;;;;3.35;1.70;;;;;;;22.08;27.29;100009.59;2175846;41;20575;-85
2021/05/31 16:59:12;;;;;;;5.15;2.35;;;;;;;22.15;27.38;100006.84;2143012;41;20048;-84
2021/05/31 17:00:44;;;;;;;4.65;2.08;;;;;;;22.17;27.30;100009.31;2171180;41;20600;-82
2021/05/31 17:02:16;;;;;;;3.15;1.60;;;;;;;22.08;27.51;100011.50;2170389;41;20064;-83
2021/05/31 17:03:48;;;;;;;5.25;1.80;;;;;;;21.95;27.45;100016.00;2166200;41;20491;-85
2021/05/31 17:05:22;;;;;;;4.90;1.80;;;;;;;21.95;27.56;100007.00;2171711;41;20089;-83
2021/05/31 17:06:54;;;;;;;4.47;1.60;;;;;;;21.89;27.85;100006.00;2170508;41;20159;-86
2021/05/31 17:08:27;;;;;;;5.43;2.50;;;;;;;21.88;28.17;100014.34;2178474;41;20027;-84
2021/05/31 17:10:02;;;;;;;3.67;2.00;;;;;;;21.92;28.11;100010.97;2177839;41;20044;-86
2021/05/31 17:15:20;;;;;;;3.55;1.73;;;;;;;21.80;27.89;100007.31;2179252;41;20032;-83
2021/05/31 17:19:01;;;;;;;3.85;1.83;;;;;;;21.85;27.38;100004.75;2170068;41;20064;-83
2021/05/31 17:20:35;;;;;;;11.77;8.02;;;;;;;21.85;27.03;100003.94;2166096;41;20053;-86
2021/05/31 17:22:06;;;;;;;5.72;2.40;;;;;;;21.73;26.96;100011.94;2166158;41;20967;-85
2021/05/31 17:23:39;;;;;;;3.33;1.60;;;;;;;21.73;27.23;100009.22;2170554;41;20020;-86
2021/05/31 17:25:11;;;;;;;4.50;2.20;;;;;;;21.78;27.22;100014.88;2171851;41;20041;-85
2021/05/31 17:26:43;;;;;;;5.00;2.15;;;;;;;21.70;27.11;100004.25;2173215;41;20034;-86
2021/05/31 17:28:15;;;;;;;4.00;1.70;;;;;;;21.70;27.21;100010.50;2172028;41;20041;-85
2021/05/31 17:29:47;;;;;;;5.15;1.65;;;;;;;21.63;27.49;100001.56;2172444;41;20041;-87
2021/05/31 17:32:28;;;;;;;3.70;1.95;;;;;;;21.60;27.51;100004.72;2165028;41;20053;-85
2021/05/31 17:33:15;;;;;;;5.88;2.05;;;;;;;21.59;27.58;100012.06;2165926;41;20046;-85